Flight Track Log - Related Links

Times and Time Zones

All times are in EDT time to prevent confusion due to time zone crossing. See the ASQ6183 flight status page for this flight to view local times or setup timezone preferences in your user account.

Time Position Orientation Groundspeed Altitude Reporting Facility
EDT Latitude Longitude Course Direction KTS MPH feet Rate Location/Type
Mon 02:26:48 PM 39.7667 -104.6500 176° South 221 254 7,100  Level Denver TRACON
Mon 02:32:14 PM 39.3144 -104.6056 173° South 356 410 13,500 1,129 Climbing Denver Center
Mon 02:33:16 PM 39.2047 -104.5875 172° South 365 420 14,400 864 Climbing Denver Center
Mon 02:34:19 PM 39.1008 -104.5694 164° South 378 435 15,300 1,008 Climbing Denver Center
Mon 02:35:21 PM 38.9875 -104.5264 158° South 382 440 16,500 1,056 Climbing Denver Center
Mon 02:36:24 PM 38.8917 -104.4756 157° South 390 449 17,500 960 Climbing Denver Center
Mon 02:37:26 PM 38.7828 -104.4169 158° South 383 441 18,500 864 Climbing Denver Center
Mon 02:38:29 PM 38.6864 -104.3661 158° South 386 444 19,300 864 Climbing Denver Center
Mon 02:39:31 PM 38.5728 -104.3075 157° South 391 450 20,300 871 Climbing Denver Center
Mon 02:40:33 PM 38.4753 -104.2556 158° South 394 453 21,100 816 Climbing Denver Center
Mon 02:41:36 PM 38.3606 -104.1950 157° South 396 456 22,000 816 Climbing Denver Center
Mon 02:42:38 PM 38.2622 -104.1428 158° South 399 459 22,800 823 Climbing Denver Center
Mon 02:43:40 PM 38.1456 -104.0831 158° South 402 463 23,700 774 Climbing Denver Center
Mon 02:44:42 PM 38.0453 -104.0308 158° South 405 466 24,400 720 Climbing Denver Center
Mon 02:45:45 PM 37.9267 -103.9694 158° South 409 471 25,200 768 Climbing Denver Center
Mon 02:46:47 PM 37.8242 -103.9164 157° South 412 474 26,000 726 Climbing Denver Center
Mon 02:47:49 PM 37.7214 -103.8625 158° South 414 476 26,700 720 Climbing Denver Center
Mon 02:48:52 PM 37.5975 -103.7983 158° South 421 484 27,500 768 Climbing Denver Center
Mon 02:49:54 PM 37.4908 -103.7450 158° South 424 488 28,300 726 Climbing Denver Center
Mon 02:50:56 PM 37.3667 -103.6817 158° South 425 489 29,000 339 Climbing Denver Center
Mon 02:51:58 PM 37.2589 -103.6267 158° South 431 496 29,000  Level Denver Center
Mon 02:53:01 PM 37.1269 -103.5611 158° South 448 516 29,000  Level Denver Center
Mon 02:54:03 PM 37.0119 -103.5031 158° South 459 528 29,000  Level Denver Center
Mon 02:55:05 PM 36.8772 -103.4361 158° South 464 534 29,000  Level Denver Center
Mon 02:56:08 PM 36.7633 -103.3792 159° South 462 532 29,000  Level Denver Center
Mon 02:57:34 PM 36.5961 -103.2972 158° South 460 529 29,000  Level Albuquerque Center
Mon 02:58:37 PM 36.4744 -103.2367 158° South 463 533 29,000  Level Albuquerque Center
Mon 02:59:39 PM 36.3339 -103.1664 158° South 462 532 29,000  Level Albuquerque Center
Mon 03:00:41 PM 36.2128 -103.1067 159° South 463 533 29,000  Level Albuquerque Center
Mon 03:01:43 PM 36.0908 -103.0475 158° South 464 534 29,000  Level Albuquerque Center
Mon 03:02:45 PM 35.9689 -102.9878 158° South 465 535 29,000  Level Albuquerque Center
Mon 03:03:48 PM 35.8467 -102.9281 158° South 466 536 29,000  Level Albuquerque Center
Mon 03:04:50 PM 35.7197 -102.8658 158° South 465 535 29,000  Level Albuquerque Center
Mon 03:05:52 PM 35.6003 -102.8078 159° South 464 534 29,000  Level Albuquerque Center
Mon 03:06:54 PM 35.4811 -102.7506 159° South 465 535 29,000  Level Albuquerque Center
Mon 03:07:56 PM 35.3386 -102.6819 159° South 465 535 29,000  Level Albuquerque Center
Mon 03:08:58 PM 35.2147 -102.6233 159° South 466 536 29,000  Level Albuquerque Center
Mon 03:10:00 PM 35.0942 -102.5664 158° South 466 536 29,000  Level Albuquerque Center
Mon 03:11:02 PM 34.9742 -102.5086 159° South 466 536 29,000 -336 Level Albuquerque Center
Mon 03:12:05 PM 34.8547 -102.4514 159° South 465 535 28,300 -1,488 Descending Albuquerque Center
Mon 03:13:07 PM 34.7367 -102.3961 158° South 460 529 25,900 -2,710 Descending Albuquerque Center
Mon 03:14:09 PM 34.5953 -102.3281 159° South 457 526 22,700 -2,875 Descending Albuquerque Center
Mon 03:14:43 PM 34.5328 -102.2986 160° South 459 528 21,300 -2,591 Descending Fort Worth Center
Mon 03:15:37 PM 34.4342 -102.2553 159° South 437 503 18,900 -2,587 Descending Fort Worth Center
Mon 03:16:32 PM 34.3400 -102.2122 158° South 408 470 16,600 -2,430 Descending Fort Worth Center
Mon 03:17:38 PM 34.2314 -102.1583 152° Southeast 390 449 14,000 -2,457 Descending Fort Worth Center
Mon 03:18:39 PM 34.1317 -102.0953 152° Southeast 382 440 11,400 -1,770 Descending Fort Worth Center
Mon 03:19:40 PM 34.0458 -102.0406 151° Southeast 340 391 10,400 -1,248 Descending Fort Worth Center
Mon 03:20:44 PM 33.9686 -101.9889 150° Southeast 325 374 8,800 -1,728 Descending Fort Worth Center
Mon 03:21:45 PM 33.9014 -101.9428 152° Southeast 289 333 6,800 -1,821 Descending Fort Worth Center
Mon 03:22:36 PM 33.8422 -101.9047 152° Southeast 276 318 5,400 -1,297 Descending Fort Worth Center
Mon 03:23:36 PM 33.7792 -101.8639 153° Southeast 266 306 4,400 -661 Descending Fort Worth Center
Mon 03:24:43 PM 33.7300 -101.8339 178° South 172 198 4,000 -422 Descending Fort Worth Center
Mon 03:25:44 PM 33.6883 -101.8319 178° South 155 178 3,500 -492 Descending Fort Worth Center

Login

Don't have an account? Register now (free) for customized features, flight alerts, and more!